Time;durP1;ratioP1;P1;durP2;ratioP2;P2;SDS_P1;SDS_P2;PMS_P1;PMS_P2;Temp;Humidity;BMP_temperature;BMP_pressure;BME280_temperature;BME280_humidity;BME280_pressure;Samples;Min_cycle;Max_cycle;Signal;HPM_P1;HPM_P2
2022/02/17 00:00:58;;;;;;;36.30;27.60;;;;;;;;;;5015130;28;20105;-77
2022/02/17 00:03:24;;;;;;;36.00;25.35;;;;;;;;;;5015308;28;20073;-77
2022/02/17 00:05:51;;;;;;;33.97;23.20;;;;;;;;;;5013870;28;20045;-76
2022/02/17 00:08:18;;;;;;;31.35;22.70;;;;;;;;;;5014736;28;20033;-77
2022/02/17 00:10:44;;;;;;;33.65;24.15;;;;;;;;;;5015106;28;20028;-77
2022/02/17 00:13:10;;;;;;;30.27;22.13;;;;;;;;;;5014761;28;20076;-77
2022/02/17 00:15:36;;;;;;;31.42;23.95;;;;;;;;;;5015064;28;20084;-77
2022/02/17 00:18:11;;;;;;;34.17;23.73;;;;;;;;;;5014733;28;20037;-77
2022/02/17 00:20:38;;;;;;;32.38;22.73;;;;;;;;;;5013631;28;20488;-77
2022/02/17 00:23:04;;;;;;;32.60;23.27;;;;;;;;;;5014599;28;20022;-76
2022/02/17 00:25:30;;;;;;;40.38;26.45;;;;;;;;;;5013530;28;20124;-77
2022/02/17 00:27:57;;;;;;;37.45;24.45;;;;;;;;;;5014693;28;20030;-76
2022/02/17 00:30:23;;;;;;;33.13;22.83;;;;;;;;;;5014577;28;20105;-77
2022/02/17 00:32:49;;;;;;;28.15;19.65;;;;;;;;;;5012926;28;20046;-76
2022/02/17 00:35:15;;;;;;;29.70;22.73;;;;;;;;;;5014288;28;20029;-76
2022/02/17 00:37:41;;;;;;;34.10;22.58;;;;;;;;;;5014624;28;20104;-76
2022/02/17 00:40:08;;;;;;;37.80;24.85;;;;;;;;;;5014185;28;20042;-76
2022/02/17 00:42:34;;;;;;;28.25;20.48;;;;;;;;;;5014624;28;20038;-76
2022/02/17 00:45:00;;;;;;;25.15;17.77;;;;;;;;;;5014256;28;20026;-76
2022/02/17 00:47:26;;;;;;;23.23;17.55;;;;;;;;;;5014147;28;20044;-76
2022/02/17 00:49:52;;;;;;;25.02;18.92;;;;;;;;;;5014371;28;20026;-76
2022/02/17 00:52:18;;;;;;;26.05;19.25;;;;;;;;;;5013935;28;20030;-76
2022/02/17 00:54:45;;;;;;;26.10;18.92;;;;;;;;;;5014409;28;20370;-77
2022/02/17 00:57:11;;;;;;;23.85;17.05;;;;;;;;;;5013929;28;20505;-76
2022/02/17 00:59:37;;;;;;;25.25;18.40;;;;;;;;;;5014182;28;20384;-77
2022/02/17 01:02:03;;;;;;;25.25;19.08;;;;;;;;;;5013479;28;20025;-77
2022/02/17 01:04:29;;;;;;;25.02;18.80;;;;;;;;;;5013974;28;20033;-77
2022/02/17 01:06:56;;;;;;;23.60;17.20;;;;;;;;;;5014055;28;20032;-77
2022/02/17 01:09:22;;;;;;;24.92;18.23;;;;;;;;;;5013726;28;20057;-77
2022/02/17 01:11:48;;;;;;;22.13;16.55;;;;;;;;;;5013965;28;20034;-77
2022/02/17 01:14:14;;;;;;;25.75;18.83;;;;;;;;;;5012549;28;20450;-76
2022/02/17 01:16:41;;;;;;;37.53;22.60;;;;;;;;;;5012385;28;20034;-76
2022/02/17 01:19:07;;;;;;;43.30;23.58;;;;;;;;;;5013821;28;20073;-76
2022/02/17 01:21:33;;;;;;;31.98;21.25;;;;;;;;;;5013423;28;20029;-76
2022/02/17 01:23:59;;;;;;;28.10;20.50;;;;;;;;;;5013789;28;20026;-76
2022/02/17 01:26:26;;;;;;;29.55;20.10;;;;;;;;;;5013438;28;20404;-77
2022/02/17 01:28:52;;;;;;;26.17;18.13;;;;;;;;;;5013578;28;20026;-76
2022/02/17 01:31:18;;;;;;;23.73;17.60;;;;;;;;;;5013261;28;20050;-77
2022/02/17 01:33:45;;;;;;;28.45;18.50;;;;;;;;;;5013464;28;20500;-77
2022/02/17 01:36:11;;;;;;;33.10;23.25;;;;;;;;;;5013529;28;20033;-77
2022/02/17 01:38:38;;;;;;;28.10;19.77;;;;;;;;;;5013127;28;20041;-76
2022/02/17 01:41:05;;;;;;;24.83;18.02;;;;;;;;;;5013379;28;20444;-77
2022/02/17 01:43:32;;;;;;;22.83;17.40;;;;;;;;;;5011869;28;20022;-77
2022/02/17 01:45:59;;;;;;;22.13;17.17;;;;;;;;;;5013303;28;20033;-77
2022/02/17 01:48:25;;;;;;;25.85;18.73;;;;;;;;;;5013034;28;20444;-77
2022/02/17 01:50:51;;;;;;;25.30;17.60;;;;;;;;;;5011998;28;20432;-77
2022/02/17 01:53:17;;;;;;;25.17;18.48;;;;;;;;;;5012083;28;20467;-77
2022/02/17 01:55:46;;;;;;;22.42;16.88;;;;;;;;;;5012839;28;20393;-77
2022/02/17 01:58:13;;;;;;;24.65;18.20;;;;;;;;;;5013100;28;20033;-77
2022/02/17 02:00:39;;;;;;;24.60;17.67;;;;;;;;;;5012640;28;20076;-77
2022/02/17 02:03:05;;;;;;;23.92;18.45;;;;;;;;;;5013145;28;20026;-77
2022/02/17 02:05:31;;;;;;;25.45;18.80;;;;;;;;;;5012703;28;20026;-77
2022/02/17 02:07:57;;;;;;;25.25;18.42;;;;;;;;;;5012983;28;20393;-76
2022/02/17 02:10:23;;;;;;;21.33;16.92;;;;;;;;;;5012798;28;20030;-76
2022/02/17 02:12:50;;;;;;;24.33;17.75;;;;;;;;;;5011735;28;20513;-76
2022/02/17 02:15:16;;;;;;;20.77;17.13;;;;;;;;;;5012929;28;20022;-76
2022/02/17 02:17:44;;;;;;;22.10;17.08;;;;;;;;;;5012580;28;20032;-77
2022/02/17 02:20:14;;;;;;;26.50;19.55;;;;;;;;;;5013055;28;20474;-77
2022/02/17 02:22:40;;;;;;;29.80;20.27;;;;;;;;;;5012477;28;20050;-77
2022/02/17 02:25:06;;;;;;;31.00;21.25;;;;;;;;;;5012754;28;20021;-77
2022/02/17 02:27:32;;;;;;;28.15;19.05;;;;;;;;;;5012399;28;20539;-77
2022/02/17 02:29:59;;;;;;;21.75;16.63;;;;;;;;;;5012660;28;20517;-77
2022/02/17 02:32:25;;;;;;;22.10;16.45;;;;;;;;;;5012415;28;20065;-77
2022/02/17 02:34:51;;;;;;;21.83;16.55;;;;;;;;;;5012469;28;20102;-77
2022/02/17 02:37:17;;;;;;;27.30;17.75;;;;;;;;;;5011321;28;20040;-77
2022/02/17 02:39:43;;;;;;;19.67;16.98;;;;;;;;;;5012245;28;20034;-77
2022/02/17 02:42:09;;;;;;;19.67;16.20;;;;;;;;;;5012581;28;20026;-77
2022/02/17 02:44:35;;;;;;;25.77;19.00;;;;;;;;;;5012234;28;20381;-77
2022/02/17 02:47:02;;;;;;;21.98;17.38;;;;;;;;;;5011153;28;20037;-76
2022/02/17 02:49:28;;;;;;;28.27;21.10;;;;;;;;;;5012501;28;20025;-77
2022/02/17 02:51:54;;;;;;;34.67;23.00;;;;;;;;;;5012169;28;20489;-77
2022/02/17 02:54:20;;;;;;;28.35;21.75;;;;;;;;;;5012446;28;20033;-77
2022/02/17 02:56:46;;;;;;;27.08;19.58;;;;;;;;;;5011954;28;20026;-77
2022/02/17 02:59:13;;;;;;;28.00;21.02;;;;;;;;;;5012371;28;20133;-77
2022/02/17 03:01:39;;;;;;;27.20;21.35;;;;;;;;;;5012178;28;20091;-77
2022/02/17 03:04:06;;;;;;;24.13;18.70;;;;;;;;;;5012442;28;20037;-77
2022/02/17 03:06:32;;;;;;;27.55;18.25;;;;;;;;;;5012270;28;20532;-77
2022/02/17 03:08:58;;;;;;;21.98;18.00;;;;;;;;;;5012038;28;20128;-77
2022/02/17 03:11:25;;;;;;;32.03;22.65;;;;;;;;;;5012262;28;20024;-77
2022/02/17 03:13:51;;;;;;;25.80;19.75;;;;;;;;;;5011994;28;20029;-77
2022/02/17 03:16:17;;;;;;;27.98;20.48;;;;;;;;;;5012207;28;20393;-77
2022/02/17 03:18:43;;;;;;;27.88;20.08;;;;;;;;;;5011847;28;20034;-77
2022/02/17 03:21:09;;;;;;;27.17;19.45;;;;;;;;;;5012171;28;20097;-76
2022/02/17 03:23:36;;;;;;;21.33;15.57;;;;;;;;;;5012887;28;20033;-77
2022/02/17 03:26:03;;;;;;;23.70;17.88;;;;;;;;;;5015701;28;20022;-77
2022/02/17 03:28:29;;;;;;;34.97;24.60;;;;;;;;;;5015761;28;20109;-77
2022/02/17 03:30:55;;;;;;;32.75;22.17;;;;;;;;;;5015534;28;20486;-77
2022/02/17 03:33:21;;;;;;;24.63;19.05;;;;;;;;;;5014792;28;20474;-77
2022/02/17 03:35:48;;;;;;;25.40;20.25;;;;;;;;;;5015582;28;20127;-77
2022/02/17 03:38:14;;;;;;;29.05;20.08;;;;;;;;;;5015601;28;20030;-77
2022/02/17 03:40:40;;;;;;;29.95;20.92;;;;;;;;;;5015524;28;20089;-77
2022/02/17 03:43:06;;;;;;;30.17;21.05;;;;;;;;;;5015481;28;20124;-77
2022/02/17 03:45:33;;;;;;;28.27;20.45;;;;;;;;;;5015751;28;20109;-76
2022/02/17 03:47:59;;;;;;;25.33;19.42;;;;;;;;;;5015236;28;20592;-76
2022/02/17 03:50:25;;;;;;;21.02;16.25;;;;;;;;;;5015411;28;20116;-76
2022/02/17 03:52:51;;;;;;;25.38;18.80;;;;;;;;;;5015012;28;20033;-76
2022/02/17 03:55:17;;;;;;;27.42;19.52;;;;;;;;;;5015390;28;20105;-76
2022/02/17 03:57:44;;;;;;;36.83;23.23;;;;;;;;;;5015340;28;20125;-77
2022/02/17 04:00:11;;;;;;;39.90;26.13;;;;;;;;;;5015044;28;20488;-77
2022/02/17 04:02:37;;;;;;;31.25;22.73;;;;;;;;;;5015243;28;20035;-77
2022/02/17 04:05:03;;;;;;;26.83;19.23;;;;;;;;;;5014946;28;20030;-77
2022/02/17 04:07:30;;;;;;;24.88;19.88;;;;;;;;;;5013860;28;20038;-77
2022/02/17 04:09:57;;;;;;;24.05;17.92;;;;;;;;;;5014946;28;20026;-77
2022/02/17 04:12:23;;;;;;;22.65;17.20;;;;;;;;;;5015073;28;20043;-77
2022/02/17 04:14:49;;;;;;;23.60;16.40;;;;;;;;;;5013700;28;20207;-76
2022/02/17 04:17:15;;;;;;;22.50;17.23;;;;;;;;;;5013573;28;20022;-76
2022/02/17 04:19:41;;;;;;;21.15;14.70;;;;;;;;;;5014846;28;20038;-77
2022/02/17 04:22:08;;;;;;;20.45;15.00;;;;;;;;;;5014657;28;20412;-77
2022/02/17 04:24:35;;;;;;;22.48;15.45;;;;;;;;;;5014912;28;20038;-77
2022/02/17 04:27:01;;;;;;;21.90;17.67;;;;;;;;;;5014687;28;20030;-77
2022/02/17 04:29:27;;;;;;;20.00;15.32;;;;;;;;;;5014667;28;20046;-77
2022/02/17 04:31:53;;;;;;;21.45;17.02;;;;;;;;;;5014578;28;20057;-77
2022/02/17 04:34:19;;;;;;;20.30;15.10;;;;;;;;;;5014389;28;20029;-76
2022/02/17 04:36:46;;;;;;;19.67;15.50;;;;;;;;;;5013424;28;20037;-77
2022/02/17 04:39:13;;;;;;;22.70;17.30;;;;;;;;;;5014288;28;20042;-76
2022/02/17 04:44:23;;;;;;;;;;;;;;;;;;5014909;28;20036;-77
2022/02/17 04:46:50;;;;;;;36.97;23.42;;;;;;;;;;5012900;28;19995;-77
2022/02/17 04:49:16;;;;;;;64.38;39.28;;;;;;;;;;5013014;28;20033;-77
2022/02/17 04:51:43;;;;;;;69.70;43.22;;;;;;;;;;5014316;28;20036;-77
2022/02/17 04:54:09;;;;;;;49.15;32.92;;;;;;;;;;5013968;28;20376;-77
2022/02/17 04:56:35;;;;;;;38.38;26.60;;;;;;;;;;5014220;28;20022;-77
2022/02/17 04:59:01;;;;;;;29.38;22.42;;;;;;;;;;5013750;28;20445;-77
2022/02/17 05:01:27;;;;;;;33.05;23.52;;;;;;;;;;5014002;28;20113;-77
2022/02/17 05:03:54;;;;;;;30.27;23.42;;;;;;;;;;5014050;28;20458;-76
2022/02/17 05:06:20;;;;;;;23.67;17.23;;;;;;;;;;5013862;28;20500;-77
2022/02/17 05:08:46;;;;;;;21.42;14.73;;;;;;;;;;5013774;28;20026;-77
2022/02/17 05:11:12;;;;;;;21.55;15.75;;;;;;;;;;5013725;28;20018;-76
2022/02/17 05:13:39;;;;;;;21.80;16.40;;;;;;;;;;5013748;28;20029;-77
2022/02/17 05:16:05;;;;;;;21.05;15.45;;;;;;;;;;5013735;28;20025;-77
2022/02/17 05:18:31;;;;;;;19.98;14.98;;;;;;;;;;5013661;28;20033;-76
2022/02/17 05:20:57;;;;;;;26.67;17.42;;;;;;;;;;5013760;28;20476;-76
2022/02/17 05:23:23;;;;;;;28.55;17.83;;;;;;;;;;5013522;28;20117;-77
2022/02/17 05:25:49;;;;;;;21.52;17.88;;;;;;;;;;5013605;28;20061;-77
2022/02/17 05:28:16;;;;;;;26.75;18.40;;;;;;;;;;5013125;28;20026;-77
2022/02/17 05:30:45;;;;;;;24.95;17.67;;;;;;;;;;5013518;28;20365;-77
2022/02/17 05:33:12;;;;;;;25.40;18.02;;;;;;;;;;5013310;28;20022;-77
2022/02/17 05:35:38;;;;;;;26.13;18.92;;;;;;;;;;5013516;28;20076;-77
2022/02/17 05:38:04;;;;;;;31.05;22.95;;;;;;;;;;5013158;28;20080;-76
2022/02/17 05:40:31;;;;;;;38.13;26.05;;;;;;;;;;5013246;28;20034;-76
2022/02/17 05:42:57;;;;;;;35.78;25.42;;;;;;;;;;5013228;28;20033;-77
2022/02/17 05:45:23;;;;;;;36.28;24.98;;;;;;;;;;5013120;28;20034;-77
2022/02/17 05:47:49;;;;;;;33.35;23.45;;;;;;;;;;5013062;28;20034;-77
2022/02/17 05:50:15;;;;;;;30.75;21.55;;;;;;;;;;5013080;28;20030;-77
2022/02/17 05:52:41;;;;;;;51.15;34.53;;;;;;;;;;5013116;28;20029;-77
2022/02/17 05:55:08;;;;;;;40.05;29.80;;;;;;;;;;5013006;28;20025;-77
2022/02/17 05:57:34;;;;;;;38.97;29.55;;;;;;;;;;5012902;28;20029;-77
2022/02/17 06:00:00;;;;;;;39.28;29.05;;;;;;;;;;5012900;28;20034;-77
2022/02/17 06:02:27;;;;;;;38.80;28.17;;;;;;;;;;5012845;28;20030;-77
2022/02/17 06:04:53;;;;;;;49.17;39.70;;;;;;;;;;5013092;28;20099;-77
2022/02/17 06:07:19;;;;;;;41.80;30.95;;;;;;;;;;5012782;28;20030;-77
2022/02/17 06:09:45;;;;;;;40.70;29.20;;;;;;;;;;5012719;28;20033;-77
2022/02/17 06:12:12;;;;;;;37.90;27.00;;;;;;;;;;5013018;28;20452;-77
2022/02/17 06:14:38;;;;;;;34.35;26.60;;;;;;;;;;5012527;28;20437;-77
2022/02/17 06:17:04;;;;;;;36.40;29.10;;;;;;;;;;5012713;28;20030;-77
2022/02/17 06:19:30;;;;;;;49.05;36.88;;;;;;;;;;5012312;28;20445;-77
2022/02/17 06:21:57;;;;;;;56.17;40.45;;;;;;;;;;5011896;28;20038;-76
2022/02/17 06:24:23;;;;;;;78.97;53.88;;;;;;;;;;5009060;28;20037;-76
2022/02/17 06:26:49;;;;;;;73.20;49.38;;;;;;;;;;5012108;28;20353;-76
2022/02/17 06:29:15;;;;;;;47.65;34.97;;;;;;;;;;5011637;28;20079;-76
2022/02/17 06:31:41;;;;;;;40.67;31.35;;;;;;;;;;5011009;28;20157;-78
2022/02/17 06:34:07;;;;;;;25.17;19.95;;;;;;;;;;5011087;28;20501;-76
2022/02/17 06:36:33;;;;;;;26.08;19.13;;;;;;;;;;5011969;28;20109;-75
2022/02/17 06:38:59;;;;;;;35.53;20.48;;;;;;;;;;5018117;28;20033;-77
2022/02/17 06:41:25;;;;;;;29.15;20.35;;;;;;;;;;4999186;28;20034;-77
2022/02/17 06:43:52;;;;;;;27.27;18.73;;;;;;;;;;4991934;28;20019;-78
2022/02/17 06:46:18;;;;;;;29.65;20.60;;;;;;;;;;5010642;28;20075;-75
2022/02/17 06:48:44;;;;;;;38.05;25.27;;;;;;;;;;5012056;28;20032;-79
2022/02/17 06:51:12;;;;;;;35.20;23.65;;;;;;;;;;5011185;28;20033;-76
2022/02/17 06:53:39;;;;;;;31.13;20.65;;;;;;;;;;4994158;28;20037;-79
2022/02/17 06:56:06;;;;;;;32.60;23.52;;;;;;;;;;4991320;28;20050;-77
2022/02/17 06:58:33;;;;;;;35.13;26.30;;;;;;;;;;4993855;28;20030;-79
2022/02/17 07:00:59;;;;;;;47.80;34.42;;;;;;;;;;4996621;28;20120;-78
2022/02/17 07:03:26;;;;;;;45.05;34.15;;;;;;;;;;4996675;28;20085;-80
2022/02/17 07:05:52;;;;;;;85.07;60.75;;;;;;;;;;4996187;28;20125;-77
2022/02/17 07:08:19;;;;;;;71.72;51.88;;;;;;;;;;4996181;28;20022;-78
2022/02/17 07:10:59;;;;;;;55.58;41.58;;;;;;;;;;4995871;28;20484;-79
2022/02/17 07:13:29;;;;;;;55.50;41.60;;;;;;;;;;4996698;28;20030;-78
2022/02/17 07:15:55;;;;;;;49.55;37.78;;;;;;;;;;4995483;28;20033;-79
2022/02/17 07:18:22;;;;;;;36.78;29.92;;;;;;;;;;4996431;28;20110;-82
2022/02/17 07:20:49;;;;;;;44.65;33.63;;;;;;;;;;4994580;28;20089;-81
2022/02/17 07:23:16;;;;;;;44.92;32.42;;;;;;;;;;4994556;28;20030;-80
2022/02/17 07:25:42;;;;;;;44.70;32.80;;;;;;;;;;4996257;28;20026;-79
2022/02/17 07:28:08;;;;;;;45.63;36.47;;;;;;;;;;4995886;28;20038;-81
2022/02/17 07:30:36;;;;;;;40.70;31.80;;;;;;;;;;5013899;28;20389;-79
2022/02/17 07:33:02;;;;;;;44.22;34.38;;;;;;;;;;5012670;28;20096;-81
2022/02/17 07:35:29;;;;;;;49.65;38.83;;;;;;;;;;5006412;28;20428;-79
2022/02/17 07:37:55;;;;;;;45.65;36.20;;;;;;;;;;5004991;28;20026;-80
2022/02/17 07:40:21;;;;;;;47.05;37.35;;;;;;;;;;5009232;28;20041;-80
2022/02/17 07:42:48;;;;;;;41.10;31.92;;;;;;;;;;4996005;28;20036;-79
2022/02/17 07:45:15;;;;;;;40.97;33.42;;;;;;;;;;4995854;28;20031;-79
2022/02/17 07:47:45;;;;;;;50.38;36.75;;;;;;;;;;5010416;28;20033;-78
2022/02/17 07:50:12;;;;;;;84.25;69.88;;;;;;;;;;5017109;28;20116;-80
2022/02/17 07:52:38;;;;;;;38.83;31.98;;;;;;;;;;5012840;28;20092;-80
2022/02/17 07:55:05;;;;;;;42.78;32.95;;;;;;;;;;5013511;28;20079;-78
2022/02/17 07:57:31;;;;;;;40.65;31.63;;;;;;;;;;5014502;28;20026;-80
2022/02/17 07:59:57;;;;;;;35.83;26.73;;;;;;;;;;5013739;28;20061;-78
2022/02/17 08:02:23;;;;;;;41.53;29.65;;;;;;;;;;5014175;28;20041;-77
2022/02/17 08:04:49;;;;;;;34.55;27.00;;;;;;;;;;5011866;28;20033;-79
2022/02/17 08:07:15;;;;;;;43.00;32.63;;;;;;;;;;5013734;28;20034;-82
2022/02/17 08:09:41;;;;;;;29.85;24.85;;;;;;;;;;5013104;28;20022;-76
2022/02/17 08:12:08;;;;;;;31.17;25.17;;;;;;;;;;5013918;28;20034;-79
2022/02/17 08:14:34;;;;;;;28.38;21.70;;;;;;;;;;5014047;28;20029;-79
2022/02/17 08:17:00;;;;;;;25.83;19.85;;;;;;;;;;5013880;28;20029;-81
2022/02/17 08:19:26;;;;;;;32.03;22.55;;;;;;;;;;5012610;28;20551;-80
2022/02/17 08:21:52;;;;;;;28.08;21.45;;;;;;;;;;5013244;28;20030;-77
2022/02/17 08:24:18;;;;;;;27.67;20.60;;;;;;;;;;5013505;28;20081;-81
2022/02/17 08:26:44;;;;;;;29.45;20.17;;;;;;;;;;5008172;28;20037;-81
2022/02/17 08:29:11;;;;;;;30.13;20.13;;;;;;;;;;5003465;28;20040;-77
2022/02/17 08:31:37;;;;;;;31.95;22.80;;;;;;;;;;5012913;28;20532;-77
2022/02/17 08:34:04;;;;;;;27.20;20.95;;;;;;;;;;5013103;28;20030;-77
2022/02/17 08:36:31;;;;;;;24.80;19.77;;;;;;;;;;5012386;28;20354;-78
2022/02/17 08:38:57;;;;;;;25.25;20.08;;;;;;;;;;5012715;28;20038;-78
2022/02/17 08:44:07;;;;;;;27.80;21.90;;;;;;;;;;5004423;28;20152;-77
2022/02/17 08:46:35;;;;;;;30.92;21.20;;;;;;;;;;5003448;28;20026;-77
2022/02/17 08:49:01;;;;;;;26.05;19.92;;;;;;;;;;5000957;28;20466;-80
2022/02/17 08:51:29;;;;;;;26.35;20.88;;;;;;;;;;5001384;28;20034;-78
2022/02/17 08:53:56;;;;;;;28.35;22.17;;;;;;;;;;5001835;28;20030;-78
2022/02/17 08:56:23;;;;;;;25.65;21.10;;;;;;;;;;5003352;28;20060;-77
2022/02/17 08:58:49;;;;;;;32.55;23.88;;;;;;;;;;5011521;28;20452;-78
2022/02/17 09:01:15;;;;;;;32.92;20.70;;;;;;;;;;5012813;28;20034;-78
2022/02/17 09:03:41;;;;;;;25.33;19.67;;;;;;;;;;5012903;28;20029;-79
2022/02/17 09:06:07;;;;;;;28.98;22.70;;;;;;;;;;5010911;28;20029;-77
2022/02/17 09:08:33;;;;;;;34.85;24.33;;;;;;;;;;5012338;28;20150;-79
2022/02/17 09:10:59;;;;;;;29.77;20.80;;;;;;;;;;5012274;28;20057;-78
2022/02/17 09:13:25;;;;;;;28.88;19.15;;;;;;;;;;5012343;28;20032;-78
2022/02/17 09:15:52;;;;;;;25.95;20.20;;;;;;;;;;5012500;28;20025;-78
2022/02/17 09:18:18;;;;;;;26.45;20.58;;;;;;;;;;5012386;28;20084;-81
2022/02/17 09:20:45;;;;;;;24.88;19.83;;;;;;;;;;5012735;28;20074;-78
2022/02/17 09:23:11;;;;;;;28.20;21.02;;;;;;;;;;5011843;28;20033;-80
2022/02/17 09:25:37;;;;;;;20.52;16.65;;;;;;;;;;5012239;28;20137;-81
2022/02/17 09:28:04;;;;;;;20.88;15.52;;;;;;;;;;5012574;28;20088;-81
2022/02/17 09:30:30;;;;;;;24.02;18.23;;;;;;;;;;5011829;28;20081;-78
2022/02/17 09:32:57;;;;;;;25.00;18.20;;;;;;;;;;5011339;28;20520;-78
2022/02/17 09:35:23;;;;;;;20.80;13.77;;;;;;;;;;5012348;28;20022;-77
2022/02/17 09:37:49;;;;;;;30.40;14.35;;;;;;;;;;5011465;28;20473;-77
2022/02/17 09:40:20;;;;;;;20.17;14.00;;;;;;;;;;5011883;28;20041;-78
2022/02/17 09:42:47;;;;;;;23.88;14.95;;;;;;;;;;5012036;28;20025;-77
2022/02/17 09:45:13;;;;;;;19.05;13.00;;;;;;;;;;5012194;28;20026;-81
2022/02/17 09:47:43;;;;;;;18.40;12.68;;;;;;;;;;5012132;28;20072;-80
2022/02/17 09:50:11;;;;;;;17.48;13.43;;;;;;;;;;5011830;28;20486;-83
2022/02/17 09:52:38;;;;;;;15.68;12.23;;;;;;;;;;5011868;28;20430;-79
2022/02/17 09:55:05;;;;;;;17.02;13.15;;;;;;;;;;5011793;28;20029;-79
2022/02/17 09:57:32;;;;;;;16.20;12.63;;;;;;;;;;5011575;28;20080;-77
2022/02/17 10:00:02;;;;;;;17.73;13.98;;;;;;;;;;5012019;28;20180;-81
2022/02/17 10:02:28;;;;;;;21.15;13.10;;;;;;;;;;5011583;28;20504;-81
2022/02/17 10:04:58;;;;;;;20.05;12.15;;;;;;;;;;5011783;28;20025;-76
2022/02/17 10:07:33;;;;;;;13.60;11.95;;;;;;;;;;5011809;28;20365;-78
2022/02/17 10:10:01;;;;;;;14.35;11.95;;;;;;;;;;5011565;28;20052;-77
2022/02/17 10:12:47;;;;;;;19.63;13.77;;;;;;;;;;5009982;28;20038;-80
2022/02/17 10:15:13;;;;;;;15.63;11.63;;;;;;;;;;5010037;28;20484;-81
2022/02/17 10:17:58;;;;;;;20.67;14.10;;;;;;;;;;5009277;28;20044;-81
2022/02/17 10:20:25;;;;;;;28.05;18.08;;;;;;;;;;5003612;28;20403;-79
2022/02/17 10:22:52;;;;;;;83.13;38.08;;;;;;;;;;5010393;28;20032;-76
2022/02/17 10:25:19;;;;;;;171.00;67.78;;;;;;;;;;5010709;28;20025;-81
2022/02/17 10:27:46;;;;;;;167.65;65.22;;;;;;;;;;5010846;28;20112;-81
2022/02/17 10:30:19;;;;;;;66.43;31.63;;;;;;;;;;5010981;28;20084;-76
2022/02/17 10:32:55;;;;;;;53.95;25.45;;;;;;;;;;5009294;28;20060;-77
2022/02/17 10:35:21;;;;;;;36.63;19.88;;;;;;;;;;5010972;28;20481;-79
2022/02/17 10:37:52;;;;;;;27.00;16.85;;;;;;;;;;5009138;28;20069;-78
2022/02/17 10:40:20;;;;;;;27.08;16.73;;;;;;;;;;5011105;28;20044;-77
2022/02/17 10:43:05;;;;;;;19.20;16.08;;;;;;;;;;5010832;28;20099;-77
2022/02/17 10:45:31;;;;;;;19.90;12.68;;;;;;;;;;5011141;28;20132;-79
2022/02/17 10:48:12;;;;;;;19.02;13.48;;;;;;;;;;5011421;28;20038;-81
2022/02/17 10:50:39;;;;;;;13.13;10.00;;;;;;;;;;5010246;28;20025;-73
2022/02/17 10:53:15;;;;;;;13.82;9.45;;;;;;;;;;5011460;28;20047;-80
2022/02/17 10:55:50;;;;;;;11.40;9.07;;;;;;;;;;5010189;28;20032;-82
2022/02/17 10:58:17;;;;;;;13.02;9.02;;;;;;;;;;5010674;28;20381;-79
2022/02/17 11:00:43;;;;;;;11.63;8.68;;;;;;;;;;5009724;28;20040;-84
2022/02/17 11:03:10;;;;;;;23.40;15.73;;;;;;;;;;5010834;28;20032;-80
2022/02/17 11:05:39;;;;;;;17.15;11.57;;;;;;;;;;5010632;28;20374;-79
2022/02/17 11:08:06;;;;;;;23.85;16.98;;;;;;;;;;5011089;28;20029;-79
2022/02/17 11:10:32;;;;;;;11.98;10.57;;;;;;;;;;5010125;28;20436;-76
2022/02/17 11:12:58;;;;;;;13.20;9.40;;;;;;;;;;5010668;28;20036;-81
2022/02/17 11:15:25;;;;;;;12.63;9.75;;;;;;;;;;5010976;28;20041;-77
2022/02/17 11:17:51;;;;;;;16.40;10.63;;;;;;;;;;5008908;28;20026;-79
2022/02/17 11:20:18;;;;;;;15.85;12.13;;;;;;;;;;5010535;28;20120;-79
2022/02/17 11:22:47;;;;;;;16.95;12.68;;;;;;;;;;5008916;28;20057;-79
2022/02/17 11:25:13;;;;;;;16.35;11.38;;;;;;;;;;5010570;28;20057;-79
2022/02/17 11:27:58;;;;;;;18.30;13.80;;;;;;;;;;5010600;28;20056;-78
2022/02/17 11:30:28;;;;;;;11.25;9.30;;;;;;;;;;5010527;28;20037;-80
2022/02/17 11:33:13;;;;;;;12.02;9.23;;;;;;;;;;5010658;28;20096;-79
2022/02/17 11:35:39;;;;;;;14.85;10.98;;;;;;;;;;5010902;28;20034;-82
2022/02/17 11:38:23;;;;;;;18.92;11.57;;;;;;;;;;5010780;28;20481;-83
2022/02/17 11:41:08;;;;;;;19.02;11.15;;;;;;;;;;5011393;28;20033;-82
2022/02/17 11:43:35;;;;;;;14.23;10.07;;;;;;;;;;5010391;28;20100;-82
2022/02/17 11:46:02;;;;;;;10.27;7.65;;;;;;;;;;5013231;28;20025;-79
2022/02/17 11:48:35;;;;;;;13.65;8.45;;;;;;;;;;5013312;28;20041;-86
2022/02/17 11:51:21;;;;;;;12.20;9.03;;;;;;;;;;5014691;28;20034;-82
2022/02/17 11:53:48;;;;;;;13.63;12.23;;;;;;;;;;5014232;28;20026;-80
2022/02/17 11:58:59;;;;;;;12.07;9.13;;;;;;;;;;5014019;28;20168;-78
2022/02/17 12:01:25;;;;;;;12.27;8.38;;;;;;;;;;5014048;28;20037;-78
2022/02/17 12:04:02;;;;;;;9.55;8.05;;;;;;;;;;5013259;28;20038;-79
2022/02/17 12:06:47;;;;;;;10.93;9.82;;;;;;;;;;5014175;28;20481;-79
2022/02/17 12:09:41;;;;;;;12.25;8.20;;;;;;;;;;5013973;28;20030;-79
2022/02/17 12:12:07;;;;;;;11.13;8.70;;;;;;;;;;5014073;28;20040;-77
2022/02/17 12:14:34;;;;;;;13.15;8.95;;;;;;;;;;5004203;28;20477;-80
2022/02/17 12:17:04;;;;;;;48.60;35.83;;;;;;;;;;4994122;28;20397;-78
2022/02/17 12:19:34;;;;;;;13.88;9.88;;;;;;;;;;4995254;28;20038;-79
2022/02/17 12:22:07;;;;;;;12.30;9.43;;;;;;;;;;5003523;28;20560;-82
2022/02/17 12:24:33;;;;;;;10.40;7.72;;;;;;;;;;4993459;28;20370;-80
2022/02/17 12:27:00;;;;;;;10.32;7.32;;;;;;;;;;5010920;28;20026;-80
2022/02/17 12:29:36;;;;;;;7.95;6.00;;;;;;;;;;5010415;28;20026;-81
2022/02/17 12:32:06;;;;;;;9.05;6.55;;;;;;;;;;4993482;28;20572;-81
2022/02/17 12:34:34;;;;;;;9.55;6.57;;;;;;;;;;4992057;28;20109;-82
2022/02/17 12:37:02;;;;;;;7.05;6.07;;;;;;;;;;5004165;28;20038;-82
2022/02/17 12:39:31;;;;;;;8.35;6.32;;;;;;;;;;4995092;28;20042;-81
2022/02/17 12:42:05;;;;;;;8.13;6.57;;;;;;;;;;5005542;28;20030;-82
2022/02/17 12:44:35;;;;;;;10.75;8.32;;;;;;;;;;5012797;28;20477;-81
2022/02/17 12:47:02;;;;;;;9.82;7.00;;;;;;;;;;5007133;28;20341;-85
2022/02/17 12:49:32;;;;;;;9.50;6.75;;;;;;;;;;4995576;28;20085;-80
2022/02/17 12:52:11;;;;;;;7.70;5.55;;;;;;;;;;4994495;28;20042;-79
2022/02/17 12:54:39;;;;;;;6.25;5.65;;;;;;;;;;4996153;28;20101;-80
2022/02/17 12:57:24;;;;;;;8.43;5.95;;;;;;;;;;5004521;28;20026;-81
2022/02/17 12:59:50;;;;;;;;;;;;;;;;;;4994869;28;20038;-80
2022/02/17 13:02:16;;;;;;;8.00;6.20;;;;;;;;;;5009985;28;20415;-78
2022/02/17 13:04:46;;;;;;;12.50;6.55;;;;;;;;;;5006123;28;20080;-79
2022/02/17 13:07:13;;;;;;;8.50;6.60;;;;;;;;;;4996292;28;20042;-80
2022/02/17 13:09:40;;;;;;;12.20;7.10;;;;;;;;;;5002922;28;20027;-79
2022/02/17 13:12:09;;;;;;;7.80;5.95;;;;;;;;;;4999856;28;20038;-80
2022/02/17 13:14:43;;;;;;;11.15;7.57;;;;;;;;;;5001285;28;20517;-77
2022/02/17 13:17:11;;;;;;;9.93;6.85;;;;;;;;;;5009745;28;20040;-79
2022/02/17 13:19:42;;;;;;;10.02;6.03;;;;;;;;;;5001446;28;20042;-79
2022/02/17 13:22:12;;;;;;;7.35;5.50;;;;;;;;;;5008921;28;20152;-79
2022/02/17 13:24:39;;;;;;;9.20;5.72;;;;;;;;;;5003333;28;20041;-83
2022/02/17 13:27:24;;;;;;;9.02;6.95;;;;;;;;;;4998885;28;20518;-81
2022/02/17 13:29:57;;;;;;;9.68;7.05;;;;;;;;;;5004964;28;20021;-80
2022/02/17 13:32:24;;;;;;;8.30;5.27;;;;;;;;;;5002801;28;20058;-81
2022/02/17 13:34:51;;;;;;;7.55;5.10;;;;;;;;;;5008866;28;20030;-79
2022/02/17 13:37:17;;;;;;;8.55;5.38;;;;;;;;;;5000621;28;20034;-79
2022/02/17 13:39:57;;;;;;;10.32;7.63;;;;;;;;;;5007217;28;20033;-80
2022/02/17 13:42:23;;;;;;;13.45;10.07;;;;;;;;;;5000051;28;20533;-80
2022/02/17 13:44:51;;;;;;;11.27;9.10;;;;;;;;;;5003013;28;20504;-79
2022/02/17 13:47:18;;;;;;;9.65;5.93;;;;;;;;;;5012404;28;20029;-79
2022/02/17 13:50:07;;;;;;;8.00;5.32;;;;;;;;;;5007542;28;20065;-80
2022/02/17 13:52:33;;;;;;;9.40;6.78;;;;;;;;;;4992276;28;20033;-78
2022/02/17 13:55:00;;;;;;;10.30;6.82;;;;;;;;;;4993020;28;20042;-80
2022/02/17 13:57:29;;;;;;;9.32;6.85;;;;;;;;;;5005329;28;20041;-81
2022/02/17 14:00:09;;;;;;;100.20;78.43;;;;;;;;;;4999420;28;20471;-81
2022/02/17 14:02:36;;;;;;;52.40;43.28;;;;;;;;;;5003342;28;20083;-80
2022/02/17 14:05:07;;;;;;;24.05;18.75;;;;;;;;;;5001586;28;20030;-78
2022/02/17 14:07:36;;;;;;;13.25;9.18;;;;;;;;;;5008631;28;20909;-81
2022/02/17 14:10:04;;;;;;;8.43;6.38;;;;;;;;;;5000863;28;20498;-81
2022/02/17 14:12:30;;;;;;;12.05;6.80;;;;;;;;;;4995468;28;20033;-79
2022/02/17 14:14:59;;;;;;;16.83;6.90;;;;;;;;;;5010101;28;20490;-81
2022/02/17 14:17:25;;;;;;;10.93;7.78;;;;;;;;;;4995112;28;20032;-77
2022/02/17 14:19:52;;;;;;;8.07;6.10;;;;;;;;;;4992627;28;20054;-79
2022/02/17 14:22:18;;;;;;;8.90;6.35;;;;;;;;;;4992523;28;20397;-79
2022/02/17 14:24:44;;;;;;;11.00;6.38;;;;;;;;;;4992679;28;20496;-79
2022/02/17 14:27:10;;;;;;;9.93;5.97;;;;;;;;;;5001028;28;20096;-79
2022/02/17 14:29:36;;;;;;;25.23;16.33;;;;;;;;;;5004637;28;20463;-78
2022/02/17 14:32:07;;;;;;;19.17;14.40;;;;;;;;;;5004874;28;20042;-80